Time;durP1;ratioP1;P1;durP2;ratioP2;P2;SDS_P1;SDS_P2;PMS_P1;PMS_P2;Temp;Humidity;BMP_temperature;BMP_pressure;BME280_temperature;BME280_humidity;BME280_pressure;Samples;Min_cycle;Max_cycle;Signal;HPM_P1;HPM_P2
2021/04/11 00:01:00;;;;;;;;;;;19.30;52.00;;;;;;4765870;29;19987;-79
2021/04/11 00:03:28;;;;;;;;;;;19.30;52.10;;;;;;4766678;30;19926;-78
2021/04/11 00:05:54;;;;;;;;;;;19.30;52.00;;;;;;4767100;30;20004;-79
2021/04/11 00:08:21;;;;;;;;;;;19.30;52.10;;;;;;4764788;30;19930;-79
2021/04/11 00:10:52;;;;;;;;;;;19.30;52.10;;;;;;4738732;30;525928;-80
2021/04/11 00:13:23;;;;;;;;;;;19.30;52.10;;;;;;4765177;30;19938;-79
2021/04/11 00:15:50;;;;;;;;;;;19.30;52.10;;;;;;4763428;30;19929;-79
2021/04/11 00:18:16;;;;;;;;;;;19.20;51.90;;;;;;4761417;30;19926;-78
2021/04/11 00:20:42;;;;;;;;;;;19.20;52.00;;;;;;4756237;30;19933;-80
2021/04/11 00:23:08;;;;;;;;;;;19.20;52.00;;;;;;4761409;30;19930;-81
2021/04/11 00:25:36;;;;;;;;;;;19.20;52.00;;;;;;4758214;30;19934;-79
2021/04/11 00:28:02;;;;;;;;;;;19.20;52.00;;;;;;4758841;30;19930;-78
2021/04/11 00:30:29;;;;;;;;;;;19.20;51.90;;;;;;4757843;30;19933;-79
2021/04/11 00:32:57;;;;;;;;;;;19.10;51.90;;;;;;4757764;30;19933;-79
2021/04/11 00:35:23;;;;;;;;;;;19.10;51.90;;;;;;4757513;30;19984;-80
2021/04/11 00:37:49;;;;;;;;;;;19.10;51.90;;;;;;4762225;29;19926;-78
2021/04/11 00:40:19;;;;;;;;;;;19.10;51.90;;;;;;4760334;30;19937;-78
2021/04/11 00:42:48;;;;;;;;;;;19.10;51.90;;;;;;4760961;30;19983;-80
2021/04/11 00:45:28;;;;;;;;;;;19.10;51.90;;;;;;4766521;30;19930;-80
2021/04/11 00:47:54;;;;;;;;;;;19.00;51.80;;;;;;4751605;30;19926;-80
2021/04/11 00:50:22;;;;;;;;;;;19.00;51.80;;;;;;4767240;30;19929;-79
2021/04/11 00:52:48;;;;;;;;;;;19.00;51.80;;;;;;4766915;30;19929;-81
2021/04/11 00:55:15;;;;;;;;;;;19.00;51.90;;;;;;4751024;30;19998;-78
2021/04/11 00:57:42;;;;;;;;;;;19.00;51.90;;;;;;4759649;30;19930;-80
2021/04/11 01:00:09;;;;;;;;;;;19.00;51.90;;;;;;4764298;30;20145;-79
2021/04/11 01:02:37;;;;;;;;;;;19.00;51.90;;;;;;4763446;30;19974;-81
2021/04/11 01:05:06;;;;;;;;;;;19.00;51.80;;;;;;4764047;30;19930;-79
2021/04/11 01:07:32;;;;;;;;;;;19.00;51.80;;;;;;4757966;30;19926;-78
2021/04/11 01:09:59;;;;;;;;;;;18.90;51.80;;;;;;4765542;30;20331;-79
2021/04/11 01:12:25;;;;;;;;;;;19.00;51.80;;;;;;4763019;30;19925;-79
2021/04/11 01:14:52;;;;;;;;;;;18.90;51.80;;;;;;4763295;30;19925;-78
2021/04/11 01:17:19;;;;;;;;;;;18.90;51.80;;;;;;4762121;30;19926;-79
2021/04/11 01:19:49;;;;;;;;;;;18.90;51.80;;;;;;4760803;30;20290;-79
2021/04/11 01:22:34;;;;;;;;;;;18.80;51.80;;;;;;4772568;29;19937;-81
2021/04/11 01:25:04;;;;;;;;;;;18.90;51.80;;;;;;4755313;30;20006;-79
2021/04/11 01:27:32;;;;;;;;;;;18.80;51.80;;;;;;4764219;30;19926;-79
2021/04/11 01:29:59;;;;;;;;;;;18.80;51.80;;;;;;4752443;30;19926;-78
2021/04/11 01:32:25;;;;;;;;;;;18.80;51.80;;;;;;4763242;30;19932;-78
2021/04/11 01:34:53;;;;;;;;;;;18.80;51.80;;;;;;4767532;30;19926;-79
2021/04/11 01:37:20;;;;;;;;;;;18.80;51.80;;;;;;4737874;30;19930;-79
2021/04/11 01:39:47;;;;;;;;;;;18.80;51.70;;;;;;4763401;30;19926;-79
2021/04/11 01:42:15;;;;;;;;;;;18.80;51.80;;;;;;4765221;30;19937;-78
2021/04/11 01:44:43;;;;;;;;;;;18.70;51.80;;;;;;4765387;30;20369;-78
2021/04/11 01:47:12;;;;;;;;;;;18.70;51.70;;;;;;4765848;30;19933;-78
2021/04/11 01:49:39;;;;;;;;;;;18.80;51.80;;;;;;4766421;30;19997;-78
2021/04/11 01:52:07;;;;;;;;;;;18.70;51.70;;;;;;4765404;30;19999;-78
2021/04/11 01:54:34;;;;;;;;;;;18.70;51.70;;;;;;4756446;30;19934;-78
2021/04/11 01:57:04;;;;;;;;;;;18.70;51.70;;;;;;4762891;30;19926;-77
2021/04/11 01:59:31;;;;;;;;;;;18.70;51.70;;;;;;4761832;30;19982;-77
2021/04/11 02:01:58;;;;;;;;;;;18.70;51.70;;;;;;4765317;30;19933;-79
2021/04/11 02:04:24;;;;;;;;;;;18.70;51.70;;;;;;4764902;30;20398;-79
2021/04/11 02:06:56;;;;;;;;;;;18.70;51.70;;;;;;4767878;30;19937;-78
2021/04/11 02:09:27;;;;;;;;;;;18.70;51.60;;;;;;4759215;30;19925;-79
2021/04/11 02:11:54;;;;;;;;;;;18.60;51.60;;;;;;4764692;30;20299;-78
2021/04/11 02:14:20;;;;;;;;;;;18.60;51.60;;;;;;4764714;30;19930;-77
2021/04/11 02:16:47;;;;;;;;;;;18.60;51.60;;;;;;4755587;30;19926;-78
2021/04/11 02:19:13;;;;;;;;;;;18.60;51.60;;;;;;4760402;30;19930;-79
2021/04/11 02:21:40;;;;;;;;;;;18.60;51.70;;;;;;4755770;30;19926;-79
2021/04/11 02:24:08;;;;;;;;;;;18.60;51.60;;;;;;4764815;30;20431;-79
2021/04/11 02:26:35;;;;;;;;;;;18.50;51.60;;;;;;4751032;30;20507;-79
2021/04/11 02:29:03;;;;;;;;;;;18.50;51.60;;;;;;4762991;30;19926;-77
2021/04/11 02:31:29;;;;;;;;;;;18.60;51.60;;;;;;4750000;30;20268;-79
2021/04/11 02:33:55;;;;;;;;;;;18.50;51.50;;;;;;4763481;30;19932;-79
2021/04/11 02:36:23;;;;;;;;;;;18.50;51.50;;;;;;4755963;30;19933;-80
2021/04/11 02:38:52;;;;;;;;;;;18.50;51.50;;;;;;4750530;30;19933;-80
2021/04/11 02:41:20;;;;;;;;;;;18.50;51.50;;;;;;4757474;30;19945;-80
2021/04/11 02:43:46;;;;;;;;;;;18.50;51.50;;;;;;4760694;30;20076;-82
2021/04/11 02:46:13;;;;;;;;;;;18.50;51.50;;;;;;4760888;30;19925;-79
2021/04/11 02:48:39;;;;;;;;;;;18.40;51.40;;;;;;4762912;30;20406;-81
2021/04/11 02:51:06;;;;;;;;;;;18.50;51.50;;;;;;4760063;30;20383;-81
2021/04/11 02:53:33;;;;;;;;;;;18.50;51.60;;;;;;4763846;30;20363;-81
2021/04/11 02:56:00;;;;;;;;;;;18.50;51.60;;;;;;4767022;30;19929;-81
2021/04/11 02:58:26;;;;;;;;;;;18.40;51.60;;;;;;4762734;30;19937;-81
2021/04/11 03:01:04;;;;;;;;;;;18.40;51.60;;;;;;4762809;30;20000;-81
2021/04/11 03:03:31;;;;;;;;;;;18.40;51.60;;;;;;4763470;30;20419;-81
2021/04/11 03:06:00;;;;;;;;;;;18.40;51.70;;;;;;4756449;30;19925;-81
2021/04/11 03:08:30;;;;;;;;;;;18.40;51.70;;;;;;4763667;30;19925;-80
2021/04/11 03:11:11;;;;;;;;;;;18.40;51.80;;;;;;4764235;30;19932;-81
2021/04/11 03:13:38;;;;;;;;;;;18.30;51.70;;;;;;4762013;30;19991;-81
2021/04/11 03:16:05;;;;;;;;;;;18.30;51.80;;;;;;4758710;30;19933;-79
2021/04/11 03:18:31;;;;;;;;;;;18.30;51.90;;;;;;4764135;30;19963;-81
2021/04/11 03:20:58;;;;;;;;;;;18.30;51.90;;;;;;4761502;30;19937;-81
2021/04/11 03:23:24;;;;;;;;;;;18.30;51.90;;;;;;4769454;30;19933;-81
2021/04/11 03:25:58;;;;;;;;;;;18.30;51.90;;;;;;4768389;30;19941;-81
2021/04/11 03:28:27;;;;;;;;;;;18.30;51.90;;;;;;4761869;30;20017;-79
2021/04/11 03:30:53;;;;;;;;;;;18.40;51.90;;;;;;4768931;30;19936;-81
2021/04/11 03:33:20;;;;;;;;;;;18.30;51.90;;;;;;4769392;30;19930;-81
2021/04/11 03:35:48;;;;;;;;;;;18.30;51.90;;;;;;4768292;30;19938;-82
2021/04/11 03:38:17;;;;;;;;;;;18.30;52.00;;;;;;4768244;30;19935;-80
2021/04/11 03:40:45;;;;;;;;;;;18.20;51.90;;;;;;4769444;30;19926;-80
2021/04/11 03:43:14;;;;;;;;;;;18.20;52.00;;;;;;4770296;30;19929;-81
2021/04/11 03:45:40;;;;;;;;;;;18.20;52.00;;;;;;4770755;30;20387;-80
2021/04/11 03:48:18;;;;;;;;;;;18.20;52.00;;;;;;4767863;30;20291;-79
2021/04/11 03:50:47;;;;;;;;;;;18.20;52.00;;;;;;4769652;30;19932;-78
2021/04/11 03:53:23;;;;;;;;;;;18.20;51.90;;;;;;4770001;30;20375;-78
2021/04/11 03:55:49;;;;;;;;;;;18.20;52.00;;;;;;4759882;30;19926;-79
2021/04/11 03:58:24;;;;;;;;;;;18.20;51.90;;;;;;4764025;30;19930;-79
2021/04/11 04:00:59;;;;;;;;;;;18.20;51.90;;;;;;4766831;30;20216;-77
2021/04/11 04:03:27;;;;;;;;;;;18.20;51.80;;;;;;4767900;30;19925;-78
2021/04/11 04:05:54;;;;;;;;;;;18.20;51.90;;;;;;4755212;30;19934;-79
2021/04/11 04:08:20;;;;;;;;;;;18.20;51.90;;;;;;4768246;30;19978;-78
2021/04/11 04:10:49;;;;;;;;;;;18.20;51.90;;;;;;4765159;30;19926;-77
2021/04/11 04:13:21;;;;;;;;;;;18.20;51.90;;;;;;4764710;30;19929;-78
2021/04/11 04:15:47;;;;;;;;;;;18.20;51.80;;;;;;4756275;30;19926;-77
2021/04/11 04:18:16;;;;;;;;;;;18.20;51.80;;;;;;4765515;30;19930;-79
2021/04/11 04:20:48;;;;;;;;;;;18.20;51.90;;;;;;4762398;30;19926;-80
2021/04/11 04:23:19;;;;;;;;;;;18.10;51.80;;;;;;4764003;30;20367;-78
2021/04/11 04:26:04;;;;;;;;;;;18.10;51.80;;;;;;4759043;30;20279;-77
2021/04/11 04:28:42;;;;;;;;;;;18.10;51.70;;;;;;4762926;30;20030;-78
2021/04/11 04:31:24;;;;;;;;;;;18.10;51.70;;;;;;4769301;30;20379;-79
2021/04/11 04:33:56;;;;;;;;;;;18.10;51.70;;;;;;4750470;30;19932;-78
2021/04/11 04:36:33;;;;;;;;;;;18.10;51.70;;;;;;4765137;30;20057;-79
2021/04/11 04:39:12;;;;;;;;;;;18.10;51.70;;;;;;4753154;30;20234;-78
2021/04/11 04:41:47;;;;;;;;;;;18.10;51.70;;;;;;4766700;30;19933;-78
2021/04/11 04:44:13;;;;;;;;;;;18.10;51.60;;;;;;4756871;30;19930;-78
2021/04/11 04:46:52;;;;;;;;;;;18.10;51.50;;;;;;4765991;30;19933;-78
2021/04/11 04:49:31;;;;;;;;;;;18.10;51.50;;;;;;4766653;30;19926;-79
2021/04/11 04:52:03;;;;;;;;;;;18.00;51.50;;;;;;4772227;30;20375;-78
2021/04/11 04:54:38;;;;;;;;;;;18.00;51.40;;;;;;4761387;30;19989;-77
2021/04/11 04:57:05;;;;;;;;;;;18.00;51.40;;;;;;4756883;30;20358;-78
2021/04/11 04:59:57;;;;;;;;;;;18.00;51.50;;;;;;4764478;30;20399;-78
2021/04/11 05:02:25;;;;;;;;;;;18.00;51.50;;;;;;4747276;30;19936;-79
2021/04/11 05:04:54;;;;;;;;;;;18.00;51.50;;;;;;4766400;30;19934;-79
2021/04/11 05:07:21;;;;;;;;;;;18.00;51.50;;;;;;4760735;30;19930;-78
2021/04/11 05:09:50;;;;;;;;;;;18.00;51.60;;;;;;4763823;30;19932;-78
2021/04/11 05:12:22;;;;;;;;;;;18.00;51.60;;;;;;4759631;30;19929;-78
2021/04/11 05:14:57;;;;;;;;;;;18.00;51.50;;;;;;4738379;30;19925;-78
2021/04/11 05:17:27;;;;;;;;;;;18.00;51.50;;;;;;4763412;30;20595;-77
2021/04/11 05:19:56;;;;;;;;;;;18.00;51.50;;;;;;4758170;30;19933;-77
2021/04/11 05:22:25;;;;;;;;;;;18.00;51.50;;;;;;4758571;30;19933;-77
2021/04/11 05:24:54;;;;;;;;;;;18.00;51.50;;;;;;4760843;30;20302;-78
2021/04/11 05:27:24;;;;;;;;;;;17.90;51.40;;;;;;4765424;30;20324;-78
2021/04/11 05:29:50;;;;;;;;;;;18.00;51.40;;;;;;4766731;30;20295;-76
2021/04/11 05:32:16;;;;;;;;;;;17.90;51.30;;;;;;4761899;30;20028;-78
2021/04/11 05:34:43;;;;;;;;;;;18.00;51.40;;;;;;4756246;30;19930;-77
2021/04/11 05:37:22;;;;;;;;;;;17.90;51.30;;;;;;4765156;30;19975;-79
2021/04/11 05:39:57;;;;;;;;;;;17.90;51.20;;;;;;4751580;30;19926;-78
2021/04/11 05:42:26;;;;;;;;;;;17.90;51.20;;;;;;4765554;30;19930;-80
2021/04/11 05:44:58;;;;;;;;;;;17.90;51.20;;;;;;4759569;30;19936;-78
2021/04/11 05:47:29;;;;;;;;;;;17.90;51.30;;;;;;4748430;30;20312;-78
2021/04/11 05:50:24;;;;;;;;;;;17.90;51.20;;;;;;4752853;30;20341;-78
2021/04/11 05:52:59;;;;;;;;;;;17.90;51.30;;;;;;4755628;30;20308;-78
2021/04/11 05:55:27;;;;;;;;;;;17.90;51.30;;;;;;4758424;30;20280;-78
2021/04/11 05:57:56;;;;;;;;;;;17.90;51.30;;;;;;4755367;30;19999;-79
2021/04/11 06:00:25;;;;;;;;;;;17.90;51.40;;;;;;4759996;30;19933;-78
2021/04/11 06:02:53;;;;;;;;;;;17.90;51.30;;;;;;4759652;30;19938;-78
2021/04/11 06:05:20;;;;;;;;;;;17.90;51.30;;;;;;4763872;30;19999;-78
2021/04/11 06:07:49;;;;;;;;;;;17.90;51.40;;;;;;4752916;30;20001;-78
2021/04/11 06:10:18;;;;;;;;;;;17.90;51.30;;;;;;4763430;30;19964;-80
2021/04/11 06:12:53;;;;;;;;;;;17.90;51.10;;;;;;4757377;30;19937;-80
2021/04/11 06:15:19;;;;;;;;;;;17.80;51.10;;;;;;4764165;30;20009;-78
2021/04/11 06:17:46;;;;;;;;;;;17.80;51.20;;;;;;4750954;30;19940;-78
2021/04/11 06:20:13;;;;;;;;;;;17.80;51.20;;;;;;4764080;30;20020;-78
2021/04/11 06:22:46;;;;;;;;;;;17.80;51.20;;;;;;4761518;30;19925;-79
2021/04/11 06:25:20;;;;;;;;;;;17.90;51.30;;;;;;4761648;30;19926;-78
2021/04/11 06:27:59;;;;;;;;;;;17.80;51.30;;;;;;4752530;30;19949;-80
2021/04/11 06:30:29;;;;;;;;;;;17.80;51.20;;;;;;4758560;30;19926;-78
2021/04/11 06:33:02;;;;;;;;;;;17.80;51.20;;;;;;4764786;30;19925;-78
2021/04/11 06:35:57;;;;;;;;;;;17.80;51.10;;;;;;4756791;30;19926;-80
2021/04/11 06:38:28;;;;;;;;;;;17.80;51.00;;;;;;4758069;30;19929;-78
2021/04/11 06:41:06;;;;;;;;;;;17.80;51.10;;;;;;4758183;30;20434;-78
2021/04/11 06:44:04;;;;;;;;;;;17.80;51.10;;;;;;4764636;30;19926;-81
2021/04/11 06:46:33;;;;;;;;;;;17.80;51.20;;;;;;4743824;30;20387;-81
2021/04/11 06:49:08;;;;;;;;;;;17.80;51.10;;;;;;4761520;30;19933;-80
2021/04/11 06:52:01;;;;;;;;;;;17.70;51.00;;;;;;4757275;30;20391;-78
2021/04/11 06:54:45;;;;;;;;;;;17.70;50.90;;;;;;4764016;30;20382;-80
2021/04/11 06:57:25;;;;;;;;;;;17.70;50.90;;;;;;4762197;30;20376;-79
2021/04/11 07:00:15;;;;;;;;;;;17.80;50.90;;;;;;4765160;30;20320;-79
2021/04/11 07:03:01;;;;;;;;;;;17.70;50.80;;;;;;4764047;30;20402;-81
2021/04/11 07:05:46;;;;;;;;;;;17.70;51.10;;;;;;4765174;30;19934;-79
2021/04/11 07:08:31;;;;;;;;;;;17.70;51.20;;;;;;4759525;30;19940;-79
2021/04/11 07:11:21;;;;;;;;;;;17.70;51.20;;;;;;4762821;30;19934;-79
2021/04/11 07:13:59;;;;;;;;;;;17.70;51.20;;;;;;4763490;30;19943;-79
2021/04/11 07:16:25;;;;;;;;;;;17.70;51.30;;;;;;4762728;30;19955;-79
2021/04/11 07:19:10;;;;;;;;;;;17.70;51.30;;;;;;4757429;30;19932;-79
2021/04/11 07:21:43;;;;;;;;;;;17.70;51.20;;;;;;4763905;30;19926;-79
2021/04/11 07:24:12;;;;;;;;;;;17.70;51.20;;;;;;4754901;30;20347;-81
2021/04/11 07:26:47;;;;;;;;;;;17.70;50.70;;;;;;4756539;30;19939;-79
2021/04/11 07:29:33;;;;;;;;;;;17.70;50.60;;;;;;4759230;30;19985;-81
2021/04/11 07:32:05;;;;;;;;;;;17.60;50.50;;;;;;4763912;30;19965;-80
2021/04/11 07:34:31;;;;;;;;;;;17.60;50.40;;;;;;4761481;30;19933;-80
2021/04/11 07:37:15;;;;;;;;;;;17.60;50.20;;;;;;4751648;30;19926;-81
2021/04/11 07:39:45;;;;;;;;;;;17.60;50.30;;;;;;4742636;30;19933;-80
2021/04/11 07:42:15;;;;;;;;;;;17.60;50.30;;;;;;4770487;30;19930;-79
2021/04/11 07:45:06;;;;;;;;;;;17.60;50.40;;;;;;4747794;30;19937;-80
2021/04/11 07:47:51;;;;;;;;;;;17.60;50.50;;;;;;4765604;30;19933;-84
2021/04/11 07:50:36;;;;;;;;;;;17.60;50.60;;;;;;4763808;30;19937;-79
2021/04/11 07:53:11;;;;;;;;;;;17.60;50.40;;;;;;4767343;30;20399;-80
2021/04/11 07:55:37;;;;;;;;;;;17.60;50.50;;;;;;4762112;30;19949;-79
2021/04/11 07:58:12;;;;;;;;;;;17.60;50.50;;;;;;4764581;30;19936;-79
2021/04/11 08:00:50;;;;;;;;;;;17.60;50.40;;;;;;4758949;30;20615;-79
2021/04/11 08:03:46;;;;;;;;;;;17.60;50.50;;;;;;4762612;30;19933;-78
2021/04/11 08:06:20;;;;;;;;;;;17.60;50.50;;;;;;4759452;30;19930;-80
2021/04/11 08:08:58;;;;;;;;;;;17.60;50.50;;;;;;4758395;30;19929;-78
2021/04/11 08:11:43;;;;;;;;;;;17.60;50.60;;;;;;4764769;30;19969;-79
2021/04/11 08:14:21;;;;;;;;;;;17.60;50.60;;;;;;4753560;30;20016;-80
2021/04/11 08:17:04;;;;;;;;;;;17.60;50.50;;;;;;4758676;30;20322;-81
2021/04/11 08:19:43;;;;;;;;;;;17.60;50.60;;;;;;4761858;30;19953;-82
2021/04/11 08:22:26;;;;;;;;;;;17.60;50.50;;;;;;4765631;29;20292;-84
2021/04/11 08:24:58;;;;;;;;;;;17.60;50.40;;;;;;4763212;29;19926;-79
2021/04/11 08:27:44;;;;;;;;;;;17.60;50.50;;;;;;4754285;30;19925;-80
2021/04/11 08:30:19;;;;;;;;;;;17.60;50.50;;;;;;4761450;30;20439;-80
2021/04/11 08:32:58;;;;;;;;;;;17.60;50.60;;;;;;4764471;30;19948;-81
2021/04/11 08:35:48;;;;;;;;;;;17.60;50.60;;;;;;4749516;30;20548;-80
2021/04/11 08:38:38;;;;;;;;;;;17.60;50.60;;;;;;4745398;30;19926;-80
2021/04/11 08:41:13;;;;;;;;;;;17.60;50.50;;;;;;4721016;30;19948;-80
2021/04/11 08:43:58;;;;;;;;;;;17.50;50.40;;;;;;4734733;30;20891;-80
2021/04/11 08:46:26;;;;;;;;;;;17.60;50.40;;;;;;4756641;30;20104;-82
2021/04/11 08:49:13;;;;;;;;;;;17.50;50.50;;;;;;4752134;30;20017;-79
2021/04/11 08:51:47;;;;;;;;;;;17.50;50.60;;;;;;4752703;30;20372;-81
2021/04/11 08:54:32;;;;;;;;;;;17.60;50.60;;;;;;4757224;30;19948;-79
2021/04/11 08:56:59;;;;;;;;;;;17.60;50.60;;;;;;4773665;29;20422;-78
2021/04/11 08:59:25;;;;;;;;;;;17.60;50.60;;;;;;4784613;29;19933;-78
2021/04/11 09:01:51;;;;;;;;;;;17.50;50.50;;;;;;4787495;29;19937;-79
2021/04/11 09:04:29;;;;;;;;;;;17.60;50.60;;;;;;4785773;29;19940;-81
2021/04/11 09:07:05;;;;;;;;;;;17.50;50.30;;;;;;4780677;29;19941;-79
2021/04/11 09:09:33;;;;;;;;;;;17.50;50.20;;;;;;4782075;29;20495;-80
2021/04/11 09:12:05;;;;;;;;;;;17.50;50.20;;;;;;4785021;29;19926;-78
2021/04/11 09:14:37;;;;;;;;;;;17.50;50.20;;;;;;4778462;29;20930;-78
2021/04/11 09:17:16;;;;;;;;;;;17.50;50.10;;;;;;4780670;29;20505;-77
2021/04/11 09:19:45;;;;;;;;;;;17.50;50.20;;;;;;4788229;29;19929;-80
2021/04/11 09:22:17;;;;;;;;;;;17.50;50.20;;;;;;4781437;29;19968;-77
2021/04/11 09:24:53;;;;;;;;;;;17.50;50.20;;;;;;4784587;29;19930;-78
2021/04/11 09:27:25;;;;;;;;;;;17.50;50.20;;;;;;4778658;29;19937;-79
2021/04/11 09:29:51;;;;;;;;;;;17.50;50.80;;;;;;4782191;29;19941;-79
2021/04/11 09:32:27;;;;;;;;;;;17.50;50.10;;;;;;4783666;29;20143;-78
2021/04/11 09:34:54;;;;;;;;;;;17.50;50.10;;;;;;4791907;29;19929;-79
2021/04/11 09:37:23;;;;;;;;;;;17.50;50.20;;;;;;4781574;29;20299;-78
2021/04/11 09:40:05;;;;;;;;;;;17.50;50.20;;;;;;4788848;29;19984;-77
2021/04/11 09:42:39;;;;;;;;;;;17.50;50.20;;;;;;4787303;29;20772;-78
2021/04/11 09:45:18;;;;;;;;;;;17.50;50.10;;;;;;4766106;29;19944;-79
2021/04/11 09:48:08;;;;;;;;;;;17.50;50.20;;;;;;4782953;29;20387;-81
2021/04/11 09:50:43;;;;;;;;;;;17.50;50.10;;;;;;4767508;29;20557;-79
2021/04/11 09:53:33;;;;;;;;;;;17.50;50.20;;;;;;4779983;29;19926;-79
2021/04/11 09:56:03;;;;;;;;;;;17.50;50.20;;;;;;4782324;29;20545;-80
2021/04/11 09:58:35;;;;;;;;;;;17.50;50.20;;;;;;4782258;29;19924;-79
2021/04/11 10:01:34;;;;;;;;;;;17.50;50.10;;;;;;4780918;29;20532;-80
2021/04/11 10:04:11;;;;;;;;;;;17.50;50.00;;;;;;4769481;29;19940;-78
2021/04/11 10:06:46;;;;;;;;;;;17.50;50.10;;;;;;4763867;29;20711;-78
2021/04/11 10:09:24;;;;;;;;;;;17.50;50.00;;;;;;4767535;29;20337;-78
2021/04/11 10:12:02;;;;;;;;;;;17.50;49.90;;;;;;4785973;29;19933;-79
2021/04/11 10:14:38;;;;;;;;;;;17.50;50.10;;;;;;4777072;29;20309;-78
2021/04/11 10:17:14;;;;;;;;;;;17.50;50.10;;;;;;4776597;29;20092;-79
2021/04/11 10:19:49;;;;;;;;;;;17.50;50.20;;;;;;4780447;29;19925;-81
2021/04/11 10:22:34;;;;;;;;;;;17.50;50.10;;;;;;4780279;29;19932;-78
2021/04/11 10:25:07;;;;;;;;;;;17.50;50.10;;;;;;4781803;29;21542;-79
2021/04/11 10:27:43;;;;;;;;;;;17.50;50.20;;;;;;4793566;29;21494;-81
2021/04/11 10:30:11;;;;;;;;;;;17.50;50.30;;;;;;4780959;29;19933;-78
2021/04/11 10:32:41;;;;;;;;;;;17.50;50.40;;;;;;4778218;29;19945;-81
2021/04/11 10:35:12;;;;;;;;;;;17.50;50.40;;;;;;4766087;29;20024;-79
2021/04/11 10:37:41;;;;;;;;;;;17.50;50.40;;;;;;4781381;29;20387;-80
2021/04/11 10:40:26;;;;;;;;;;;17.50;50.50;;;;;;4772837;29;20285;-80
2021/04/11 10:43:02;;;;;;;;;;;17.50;50.50;;;;;;4774874;29;19926;-81
2021/04/11 10:45:28;;;;;;;;;;;17.50;50.60;;;;;;4767831;29;20017;-80
2021/04/11 10:48:13;;;;;;;;;;;17.50;50.60;;;;;;4767948;29;20215;-80
2021/04/11 10:50:43;;;;;;;;;;;17.50;51.00;;;;;;4762366;29;19926;-79
2021/04/11 10:53:16;;;;;;;;;;;17.60;51.30;;;;;;4760614;29;19937;-80
2021/04/11 10:56:01;;;;;;;;;;;17.70;51.80;;;;;;4778638;29;20290;-83
2021/04/11 10:58:33;;;;;;;;;;;17.90;53.40;;;;;;4769484;29;22245;-78
2021/04/11 11:01:10;;;;;;;;;;;18.00;51.30;;;;;;4736962;29;20027;-80
2021/04/11 11:03:50;;;;;;;;;;;18.10;51.60;;;;;;4777595;24;20522;-84
2021/04/11 11:06:33;;;;;;;;;;;18.00;51.40;;;;;;4776232;29;19931;-83
2021/04/11 11:09:30;;;;;;;;;;;18.00;51.40;;;;;;4766820;29;20862;-84
2021/04/11 11:11:57;;;;;;;;;;;18.00;51.40;;;;;;4764269;29;19933;-85
2021/04/11 11:14:46;;;;;;;;;;;18.10;51.90;;;;;;4812923;24;19924;-84
2021/04/11 11:17:31;;;;;;;;;;;18.10;52.10;;;;;;4749621;29;20588;-84
2021/04/11 11:20:07;;;;;;;;;;;18.20;52.10;;;;;;4783531;29;19925;-85
2021/04/11 11:22:52;;;;;;;;;;;18.20;52.10;;;;;;4787325;29;20394;-83
2021/04/11 11:25:29;;;;;;;;;;;18.30;52.20;;;;;;4785925;29;19933;-84
2021/04/11 11:27:55;;;;;;;;;;;18.30;52.00;;;;;;4786736;29;19933;-85
2021/04/11 11:30:28;;;;;;;;;;;18.40;52.10;;;;;;4769280;29;19937;-83
2021/04/11 11:33:00;;;;;;;;;;;18.40;51.80;;;;;;4786100;29;19932;-85
2021/04/11 11:35:27;;;;;;;;;;;18.40;51.90;;;;;;4786901;29;19925;-82
2021/04/11 11:37:59;;;;;;;;;;;18.50;51.80;;;;;;4794332;29;20343;-84
2021/04/11 11:40:31;;;;;;;;;;;18.40;51.90;;;;;;4788003;29;19933;-82
2021/04/11 11:43:11;;;;;;;;;;;18.50;52.20;;;;;;4783160;29;20336;-84
2021/04/11 11:45:52;;;;;;;;;;;18.50;52.20;;;;;;4781674;29;19932;-88
2021/04/11 11:48:30;;;;;;;;;;;18.60;51.50;;;;;;4782329;29;19940;-87
2021/04/11 11:50:56;;;;;;;;;;;18.60;51.70;;;;;;4790625;29;20326;-87
2021/04/11 11:53:38;;;;;;;;;;;18.60;51.70;;;;;;4770593;29;19934;-85
2021/04/11 11:56:26;;;;;;;;;;;18.70;52.60;;;;;;4771865;29;19948;-83
2021/04/11 11:59:12;;;;;;;;;;;18.70;51.30;;;;;;4794077;29;19996;-81
2021/04/11 12:01:44;;;;;;;;;;;18.70;51.50;;;;;;4771866;29;20641;-85
2021/04/11 12:04:36;;;;;;;;;;;18.70;51.90;;;;;;4773088;29;19926;-84
2021/04/11 12:07:09;;;;;;;;;;;18.80;51.70;;;;;;4767355;30;20346;-84
2021/04/11 12:09:38;;;;;;;;;;;18.80;51.70;;;;;;4755628;29;19940;-85
2021/04/11 12:15:00;;;;;;;;;;;18.90;52.20;;;;;;4762477;24;19926;-83
2021/04/11 12:17:48;;;;;;;;;;;18.90;51.60;;;;;;4742581;29;19969;-83
2021/04/11 12:20:16;;;;;;;;;;;18.90;51.20;;;;;;4754467;30;19941;-82
2021/04/11 12:22:45;;;;;;;;;;;19.00;51.10;;;;;;4772508;29;20374;-83
2021/04/11 12:25:18;;;;;;;;;;;19.00;51.20;;;;;;4719271;30;19926;-82
2021/04/11 12:28:16;;;;;;;;;;;19.00;51.30;;;;;;4743373;29;19930;-81
2021/04/11 12:30:44;;;;;;;;;;;19.10;51.10;;;;;;4756555;29;19934;-82
2021/04/11 12:33:17;;;;;;;;;;;19.20;51.10;;;;;;4765549;29;19953;-83
2021/04/11 12:35:50;;;;;;;;;;;19.10;51.00;;;;;;4747553;30;19937;-83
2021/04/11 12:38:27;;;;;;;;;;;19.10;51.00;;;;;;4750411;29;20268;-82
2021/04/11 12:41:12;;;;;;;;;;;19.10;50.70;;;;;;4751978;29;20188;-81
2021/04/11 12:44:02;;;;;;;;;;;19.00;50.50;;;;;;4735605;30;22313;-81
2021/04/11 12:46:39;;;;;;;;;;;18.90;50.50;;;;;;4750718;30;20071;-81
2021/04/11 12:49:19;;;;;;;;;;;18.90;50.20;;;;;;4750252;30;19934;-80
2021/04/11 12:52:00;;;;;;;;;;;18.80;50.10;;;;;;4771088;29;20020;-81
2021/04/11 12:57:28;;;;;;;;;;;18.80;51.70;;;;;;4813897;24;19933;-85
2021/04/11 13:00:04;;;;;;;;;;;18.90;52.40;;;;;;4781777;30;19932;-85
2021/04/11 13:02:31;;;;;;;;;;;18.90;52.80;;;;;;4798468;29;20696;-86
2021/04/11 13:05:03;;;;;;;;;;;18.90;52.20;;;;;;4786570;29;19979;-83
2021/04/11 13:07:32;;;;;;;;;;;19.00;52.30;;;;;;4787194;29;20908;-84
2021/04/11 13:10:19;;;;;;;;;;;19.00;52.40;;;;;;4786301;29;20251;-85
2021/04/11 13:12:55;;;;;;;;;;;19.00;52.30;;;;;;4773220;29;20225;-84
2021/04/11 13:15:34;;;;;;;;;;;19.10;52.40;;;;;;4786694;29;19925;-83
2021/04/11 13:18:10;;;;;;;;;;;19.10;52.40;;;;;;4756970;29;19976;-83
2021/04/11 13:20:50;;;;;;;;;;;19.10;53.40;;;;;;4796555;29;22348;-90
2021/04/11 13:23:43;;;;;;;;;;;19.20;52.30;;;;;;4776902;29;19938;-85
2021/04/11 13:26:18;;;;;;;;;;;19.20;51.70;;;;;;4774267;29;19988;-85
2021/04/11 13:28:54;;;;;;;;;;;19.10;51.60;;;;;;4774265;29;19929;-86
2021/04/11 13:31:33;;;;;;;;;;;19.10;51.50;;;;;;4789193;29;19937;-85
2021/04/11 13:34:04;;;;;;;;;;;19.00;50.90;;;;;;4788150;29;20759;-85
2021/04/11 13:36:32;;;;;;;;;;;19.00;51.00;;;;;;4765759;29;19978;-83
2021/04/11 13:39:01;;;;;;;;;;;19.00;51.10;;;;;;4784335;29;20375;-83
2021/04/11 13:41:47;;;;;;;;;;;19.00;51.10;;;;;;4773453;29;19925;-83
2021/04/11 13:44:32;;;;;;;;;;;18.90;51.00;;;;;;4755948;29;21612;-86
2021/04/11 13:47:17;;;;;;;;;;;18.90;50.90;;;;;;4787648;29;20623;-83
2021/04/11 13:49:47;;;;;;;;;;;18.90;51.20;;;;;;4765869;29;19929;-84
2021/04/11 13:52:28;;;;;;;;;;;18.90;51.20;;;;;;4770454;29;19940;-83
2021/04/11 13:54:58;;;;;;;;;;;18.90;50.90;;;;;;4782494;29;19926;-84
2021/04/11 13:57:30;;;;;;;;;;;18.90;51.10;;;;;;4769837;29;19925;-84
2021/04/11 14:00:26;;;;;;;;;;;18.80;51.20;;;;;;4785697;29;19929;-85
2021/04/11 14:06:49;;;;;;;;;;;18.80;51.90;;;;;;4793726;24;19932;-84
2021/04/11 14:09:17;;;;;;;;;;;18.80;52.20;;;;;;4782202;29;19926;-84
2021/04/11 14:11:47;;;;;;;;;;;18.90;53.00;;;;;;4781999;29;19929;-87
2021/04/11 14:14:37;;;;;;;;;;;18.90;52.90;;;;;;4778413;29;19996;-85
2021/04/11 14:17:36;;;;;;;;;;;19.00;53.00;;;;;;4788843;29;19925;-83
2021/04/11 14:20:11;;;;;;;;;;;19.00;53.20;;;;;;4773293;29;19982;-80
2021/04/11 14:22:44;;;;;;;;;;;19.00;52.90;;;;;;4782198;29;19925;-83
2021/04/11 14:25:18;;;;;;;;;;;19.10;53.00;;;;;;4773777;29;19933;-83
2021/04/11 14:27:56;;;;;;;;;;;19.10;52.80;;;;;;4785192;29;20287;-84
2021/04/11 14:30:27;;;;;;;;;;;19.10;52.40;;;;;;4767802;29;19940;-79
2021/04/11 14:32:56;;;;;;;;;;;19.10;52.20;;;;;;4782123;29;20383;-82
2021/04/11 14:35:28;;;;;;;;;;;19.20;52.10;;;;;;4780962;29;19943;-82
2021/04/11 14:38:22;;;;;;;;;;;19.10;51.90;;;;;;4783610;29;19926;-79
2021/04/11 14:40:58;;;;;;;;;;;19.10;52.40;;;;;;4767471;29;20716;-79
2021/04/11 14:43:35;;;;;;;;;;;19.20;52.40;;;;;;4777194;29;19925;-79
2021/04/11 14:46:03;;;;;;;;;;;19.20;52.20;;;;;;4767837;29;19929;-82
2021/04/11 14:48:30;;;;;;;;;;;19.20;52.00;;;;;;4779813;29;19936;-82
2021/04/11 14:51:10;;;;;;;;;;;19.20;51.40;;;;;;4805523;29;19924;-80
2021/04/11 14:53:48;;;;;;;;;;;19.30;51.70;;;;;;4795723;29;20567;-80
2021/04/11 14:56:20;;;;;;;;;;;19.30;51.80;;;;;;4803257;29;19920;-81
2021/04/11 14:59:04;;;;;;;;;;;19.30;51.70;;;;;;4803700;29;19926;-84
2021/04/11 15:01:40;;;;;;;;;;;19.40;51.50;;;;;;4774315;29;20721;-81
2021/04/11 15:04:26;;;;;;;;;;;19.30;51.40;;;;;;4733361;29;21784;-81